Time;durP1;ratioP1;P1;durP2;ratioP2;P2;SDS_P1;SDS_P2;PMS_P1;PMS_P2;Temp;Humidity;BMP_temperature;BMP_pressure;BME280_temperature;BME280_humidity;BME280_pressure;Samples;Min_cycle;Max_cycle;Signal;HPM_P1;HPM_P2
2023/09/02 00:01:00;;;;;;;34.10;24.27;;;18.60;86.50;;;;;;5034485;28;20033;-69
2023/09/02 00:03:26;;;;;;;34.42;24.58;;;18.60;86.60;;;;;;5037520;28;20033;-69
2023/09/02 00:05:52;;;;;;;31.70;23.27;;;18.60;86.60;;;;;;5036192;28;20037;-69
2023/09/02 00:08:18;;;;;;;33.35;23.23;;;18.60;86.50;;;;;;5042363;28;20025;-69
2023/09/02 00:10:44;;;;;;;33.40;22.90;;;18.60;86.50;;;;;;5044824;28;20026;-69
2023/09/02 00:13:10;;;;;;;31.67;22.23;;;18.60;86.50;;;;;;5026126;28;20036;-69
2023/09/02 00:15:35;;;;;;;30.48;23.05;;;18.60;86.50;;;;;;5035023;28;20037;-69
2023/09/02 00:18:01;;;;;;;31.77;22.52;;;18.60;86.50;;;;;;5017939;28;20139;-69
2023/09/02 00:20:27;;;;;;;32.30;23.27;;;18.60;86.50;;;;;;5034640;28;20064;-69
2023/09/02 00:22:53;;;;;;;33.67;23.77;;;18.60;86.50;;;;;;5035108;28;20038;-69
2023/09/02 00:25:18;;;;;;;31.73;22.13;;;18.60;86.50;;;;;;5035965;28;20030;-69
2023/09/02 00:27:44;;;;;;;34.45;23.75;;;18.60;86.40;;;;;;5035591;28;20085;-69
2023/09/02 00:30:10;;;;;;;29.33;21.65;;;18.60;87.00;;;;;;5034057;28;20025;-69
2023/09/02 00:32:36;;;;;;;29.30;22.40;;;18.50;86.30;;;;;;5028544;28;20429;-69
2023/09/02 00:35:02;;;;;;;33.13;23.00;;;18.50;86.40;;;;;;5035800;28;20018;-69
2023/09/02 00:37:28;;;;;;;32.38;22.88;;;18.50;86.40;;;;;;5034201;28;20056;-69
2023/09/02 00:39:54;;;;;;;28.40;22.17;;;18.50;86.40;;;;;;5034701;28;20462;-69
2023/09/02 00:42:21;;;;;;;33.15;22.77;;;18.40;86.40;;;;;;5029520;28;20049;-69
2023/09/02 00:44:47;;;;;;;36.60;23.20;;;18.40;86.30;;;;;;5035271;28;20017;-69
2023/09/02 00:47:13;;;;;;;34.75;25.02;;;18.40;86.30;;;;;;5034556;28;20465;-69
2023/09/02 00:49:39;;;;;;;33.78;24.20;;;18.40;86.40;;;;;;5032915;28;20026;-69
2023/09/02 00:52:05;;;;;;;33.60;23.95;;;18.40;86.40;;;;;;5034364;28;20466;-69
2023/09/02 00:54:33;;;;;;;31.38;22.50;;;18.40;86.30;;;;;;5034879;28;20040;-69
2023/09/02 00:57:00;;;;;;;31.65;23.05;;;18.40;86.30;;;;;;5036721;28;20167;-69
2023/09/02 00:59:26;;;;;;;30.33;21.75;;;18.30;86.30;;;;;;5033866;28;20033;-69
2023/09/02 01:01:55;;;;;;;29.65;22.13;;;18.30;86.30;;;;;;5035040;28;20454;-69
2023/09/02 01:04:21;;;;;;;30.95;23.30;;;18.30;86.20;;;;;;5035321;28;20354;-69
2023/09/02 01:06:47;;;;;;;30.58;23.13;;;18.30;86.20;;;;;;5034078;28;20095;-69
2023/09/02 01:09:14;;;;;;;31.95;22.60;;;18.20;86.20;;;;;;5034761;28;20053;-70
2023/09/02 01:11:39;;;;;;;27.50;21.55;;;18.20;86.20;;;;;;5032540;28;20029;-69
2023/09/02 01:14:05;;;;;;;30.73;21.40;;;18.20;86.20;;;;;;5033722;28;20033;-69
2023/09/02 01:16:34;;;;;;;31.98;22.65;;;18.20;86.20;;;;;;5035553;28;20092;-69
2023/09/02 01:19:00;;;;;;;31.92;22.50;;;18.10;86.10;;;;;;5036839;28;20061;-69
2023/09/02 01:21:49;;;;;;;31.85;23.25;;;18.10;86.10;;;;;;5012671;28;20104;-69
2023/09/02 01:24:15;;;;;;;29.17;21.00;;;18.10;86.10;;;;;;5027813;28;20033;-69
2023/09/02 01:26:55;;;;;;;29.58;21.55;;;18.10;86.30;;;;;;5033828;28;20144;-69
2023/09/02 01:29:28;;;;;;;29.38;21.30;;;18.10;86.20;;;;;;5042773;28;20131;-69
2023/09/02 01:31:54;;;;;;;26.40;20.02;;;18.10;86.20;;;;;;5028831;28;20071;-69
2023/09/02 01:34:23;;;;;;;27.40;19.98;;;18.10;86.20;;;;;;5034564;28;20423;-69
2023/09/02 01:36:52;;;;;;;28.48;19.88;;;18.20;86.30;;;;;;5034483;28;20017;-69
2023/09/02 01:39:22;;;;;;;26.33;19.85;;;18.20;86.30;;;;;;5032258;28;20038;-70
2023/09/02 01:41:50;;;;;;;29.25;20.55;;;18.20;86.40;;;;;;5021734;28;20045;-70
2023/09/02 01:44:16;;;;;;;29.70;20.35;;;18.20;86.40;;;;;;5033391;28;20029;-69
2023/09/02 01:46:42;;;;;;;27.55;20.75;;;18.20;86.40;;;;;;5029770;28;20450;-69
2023/09/02 01:49:09;;;;;;;29.92;21.52;;;18.20;86.40;;;;;;5025490;28;20037;-69
2023/09/02 01:51:35;;;;;;;30.58;20.42;;;18.20;86.40;;;;;;5025289;28;20042;-68
2023/09/02 01:54:01;;;;;;;29.48;20.42;;;18.20;86.50;;;;;;5034098;28;20060;-68
2023/09/02 01:56:27;;;;;;;27.55;19.55;;;18.30;86.50;;;;;;5034192;28;20025;-68
2023/09/02 01:58:53;;;;;;;26.75;19.67;;;18.30;86.50;;;;;;5046684;28;20111;-68
2023/09/02 02:01:19;;;;;;;29.65;20.25;;;18.30;86.50;;;;;;5025694;28;20143;-68
2023/09/02 02:04:01;;;;;;;27.70;20.15;;;18.30;86.50;;;;;;5007762;28;20092;-67
2023/09/02 02:06:30;;;;;;;26.85;19.95;;;18.30;86.60;;;;;;5035371;28;20044;-68
2023/09/02 02:09:03;;;;;;;27.77;19.77;;;18.30;86.60;;;;;;5052405;28;20041;-68
2023/09/02 02:11:31;;;;;;;26.17;18.52;;;18.30;86.60;;;;;;5032344;28;20030;-67
2023/09/02 02:14:04;;;;;;;27.70;19.95;;;18.30;86.60;;;;;;5037936;28;20029;-68
2023/09/02 02:16:31;;;;;;;28.33;19.50;;;18.30;86.70;;;;;;5028241;28;20099;-68
2023/09/02 02:19:00;;;;;;;26.67;19.08;;;18.30;86.70;;;;;;5042907;28;20116;-68
2023/09/02 02:21:28;;;;;;;26.30;18.67;;;18.30;86.70;;;;;;5034679;28;20120;-68
2023/09/02 02:23:53;;;;;;;28.90;18.60;;;18.30;86.70;;;;;;5027080;28;20064;-68
2023/09/02 02:26:19;;;;;;;26.98;18.88;;;18.30;86.70;;;;;;5033445;28;20056;-68
2023/09/02 02:28:46;;;;;;;28.38;18.67;;;18.30;86.80;;;;;;5041752;28;20430;-68
2023/09/02 02:31:12;;;;;;;27.48;19.23;;;18.30;86.70;;;;;;5035595;28;20017;-68
2023/09/02 02:33:38;;;;;;;29.95;18.45;;;18.30;86.80;;;;;;5030835;28;20029;-68
2023/09/02 02:36:04;;;;;;;29.95;20.27;;;18.30;86.80;;;;;;5032132;28;20124;-67
2023/09/02 02:38:30;;;;;;;30.15;20.02;;;18.30;86.80;;;;;;5034453;28;20037;-68
2023/09/02 02:40:56;;;;;;;31.25;19.35;;;18.30;86.90;;;;;;5033385;28;20485;-68
2023/09/02 02:43:26;;;;;;;29.95;19.15;;;18.30;86.90;;;;;;5026425;28;20029;-68
2023/09/02 02:45:55;;;;;;;30.55;19.13;;;18.30;86.90;;;;;;5031661;28;20029;-68
2023/09/02 02:48:29;;;;;;;33.63;20.80;;;18.30;86.90;;;;;;5033467;28;20343;-68
2023/09/02 02:50:56;;;;;;;34.90;20.83;;;18.30;86.90;;;;;;5045284;28;20045;-68
2023/09/02 02:53:22;;;;;;;33.58;21.23;;;18.30;87.00;;;;;;5021809;28;20091;-68
2023/09/02 02:55:48;;;;;;;36.85;23.00;;;18.40;87.00;;;;;;5031443;28;20473;-68
2023/09/02 02:58:15;;;;;;;33.88;20.75;;;18.40;87.10;;;;;;5015720;28;20030;-68
2023/09/02 03:00:43;;;;;;;38.33;22.67;;;18.40;87.10;;;;;;5033092;28;20029;-68
2023/09/02 03:03:10;;;;;;;37.67;22.88;;;18.40;87.10;;;;;;5032305;28;20446;-68
2023/09/02 03:05:37;;;;;;;39.78;22.25;;;18.40;87.10;;;;;;5020969;28;20179;-68
2023/09/02 03:08:06;;;;;;;39.20;23.30;;;18.40;87.20;;;;;;5033014;28;20469;-68
2023/09/02 03:10:33;;;;;;;42.88;23.90;;;18.40;87.20;;;;;;5037046;28;20115;-68
2023/09/02 03:13:00;;;;;;;41.15;23.45;;;18.40;87.20;;;;;;5034099;28;20478;-68
2023/09/02 03:15:26;;;;;;;40.50;22.48;;;18.40;87.20;;;;;;5030970;28;20406;-68
2023/09/02 03:17:53;;;;;;;37.97;23.00;;;18.40;87.20;;;;;;5032368;28;20079;-68
2023/09/02 03:20:20;;;;;;;39.20;23.23;;;18.40;87.30;;;;;;5032078;28;20022;-68
2023/09/02 03:22:46;;;;;;;42.88;23.95;;;18.40;87.20;;;;;;5016527;28;20030;-68
2023/09/02 03:25:12;;;;;;;37.38;21.73;;;18.40;87.30;;;;;;5011197;28;20447;-67
2023/09/02 03:27:42;;;;;;;40.70;22.77;;;18.40;87.30;;;;;;5022675;28;20386;-68
2023/09/02 03:30:08;;;;;;;37.30;20.85;;;18.40;87.30;;;;;;5030302;28;20025;-68
2023/09/02 03:32:35;;;;;;;39.45;22.33;;;18.40;87.40;;;;;;5033757;28;20087;-68
2023/09/02 03:35:04;;;;;;;39.65;23.25;;;18.40;87.40;;;;;;5022271;28;20049;-68
2023/09/02 03:37:30;;;;;;;38.92;23.42;;;18.40;87.40;;;;;;5024808;28;20021;-67
2023/09/02 03:39:57;;;;;;;37.53;22.58;;;18.40;87.40;;;;;;5031817;28;20021;-68
2023/09/02 03:42:23;;;;;;;41.25;22.92;;;18.40;87.40;;;;;;5032696;28;20382;-68
2023/09/02 03:44:49;;;;;;;41.13;22.92;;;18.40;87.40;;;;;;5022773;28;20030;-68
2023/09/02 03:47:15;;;;;;;40.80;23.75;;;18.40;87.50;;;;;;5049524;28;20029;-68
2023/09/02 03:49:41;;;;;;;41.00;23.23;;;18.40;87.50;;;;;;5036932;28;20466;-68
2023/09/02 03:52:08;;;;;;;43.30;23.35;;;18.40;87.50;;;;;;5035530;28;20021;-68
2023/09/02 03:54:35;;;;;;;39.20;22.92;;;18.40;87.50;;;;;;5036327;28;20026;-68
2023/09/02 03:57:02;;;;;;;42.35;23.65;;;18.40;87.50;;;;;;5031634;28;20053;-68
2023/09/02 03:59:28;;;;;;;43.38;23.95;;;18.40;87.60;;;;;;5035285;28;20030;-68
2023/09/02 04:01:53;;;;;;;41.47;24.33;;;18.40;87.60;;;;;;5035321;28;20029;-68
2023/09/02 04:04:19;;;;;;;42.70;24.30;;;18.40;87.60;;;;;;5019636;28;20033;-68
2023/09/02 04:06:45;;;;;;;35.22;22.42;;;18.40;87.60;;;;;;5017668;28;20025;-68
2023/09/02 04:09:11;;;;;;;41.22;24.00;;;18.40;87.60;;;;;;5033813;28;20029;-68
2023/09/02 04:11:37;;;;;;;39.20;23.15;;;18.40;87.60;;;;;;5037491;28;20434;-68
2023/09/02 04:14:02;;;;;;;38.63;23.05;;;18.40;87.70;;;;;;5030755;28;20030;-68
2023/09/02 04:16:28;;;;;;;37.90;22.42;;;18.40;87.70;;;;;;5033151;28;20091;-68
2023/09/02 04:18:55;;;;;;;35.38;22.75;;;18.40;87.70;;;;;;5032662;28;20096;-68
2023/09/02 04:21:21;;;;;;;38.28;22.90;;;18.40;87.70;;;;;;5041431;28;20079;-68
2023/09/02 04:23:47;;;;;;;33.83;21.60;;;18.30;87.70;;;;;;5036616;28;20033;-68
2023/09/02 04:26:19;;;;;;;32.53;21.15;;;18.40;87.70;;;;;;5032222;28;20071;-68
2023/09/02 04:28:44;;;;;;;38.05;21.77;;;18.30;87.70;;;;;;5016996;28;20060;-68
2023/09/02 04:31:14;;;;;;;33.35;19.70;;;18.30;87.70;;;;;;5042965;28;20025;-68
2023/09/02 04:33:40;;;;;;;34.08;21.30;;;18.30;87.70;;;;;;5035768;28;20041;-68
2023/09/02 04:36:07;;;;;;;35.95;22.25;;;18.40;87.80;;;;;;5025298;28;20022;-68
2023/09/02 04:38:37;;;;;;;34.15;20.92;;;18.30;87.70;;;;;;5040978;28;20154;-68
2023/09/02 04:41:06;;;;;;;38.55;23.92;;;18.30;87.70;;;;;;5037862;28;20041;-66
2023/09/02 04:43:34;;;;;;;36.92;22.10;;;18.30;87.70;;;;;;5052160;28;20049;-68
2023/09/02 04:46:04;;;;;;;35.08;21.98;;;18.40;88.40;;;;;;5043319;28;20083;-67
2023/09/02 04:48:33;;;;;;;35.33;20.50;;;18.30;87.80;;;;;;5029103;28;20053;-67
2023/09/02 04:51:01;;;;;;;38.40;22.10;;;18.30;87.80;;;;;;5008918;28;20041;-67
2023/09/02 04:53:27;;;;;;;36.80;20.67;;;18.30;87.80;;;;;;5036724;28;20366;-67
2023/09/02 04:55:53;;;;;;;38.88;21.33;;;18.30;87.80;;;;;;5033666;28;20033;-67
2023/09/02 04:58:22;;;;;;;37.38;22.50;;;18.40;87.80;;;;;;5032015;28;20033;-67
2023/09/02 05:00:49;;;;;;;31.73;20.08;;;18.40;87.80;;;;;;5026670;28;20029;-68
2023/09/02 05:03:14;;;;;;;36.30;21.98;;;18.40;87.80;;;;;;5031403;28;20413;-68
2023/09/02 05:05:40;;;;;;;33.70;20.83;;;18.40;87.80;;;;;;5035689;28;20025;-68
2023/09/02 05:08:10;;;;;;;33.53;20.25;;;18.40;87.80;;;;;;5016098;28;20117;-67
2023/09/02 05:10:37;;;;;;;34.15;21.65;;;18.40;87.90;;;;;;5036443;28;20068;-68
2023/09/02 05:13:03;;;;;;;37.38;21.77;;;18.40;87.90;;;;;;5031844;28;20383;-67
2023/09/02 05:15:30;;;;;;;36.13;20.25;;;18.40;87.90;;;;;;5033653;28;20439;-68
2023/09/02 05:18:00;;;;;;;38.00;22.50;;;18.40;87.90;;;;;;5033626;28;20036;-68
2023/09/02 05:20:27;;;;;;;36.92;21.45;;;18.40;88.00;;;;;;5033493;28;20086;-68
2023/09/02 05:22:53;;;;;;;34.70;21.80;;;18.40;87.90;;;;;;5035850;28;20116;-68
2023/09/02 05:25:20;;;;;;;36.95;22.48;;;18.40;88.00;;;;;;5034962;28;20033;-67
2023/09/02 05:27:48;;;;;;;33.45;21.33;;;18.40;87.90;;;;;;5034855;28;20107;-68
2023/09/02 05:30:13;;;;;;;36.30;21.77;;;18.40;88.00;;;;;;5033136;28;20032;-68
2023/09/02 05:32:39;;;;;;;36.63;20.70;;;18.40;87.90;;;;;;5035375;28;20018;-68
2023/09/02 05:35:05;;;;;;;33.42;21.98;;;18.40;88.00;;;;;;5034257;28;20465;-68
2023/09/02 05:37:31;;;;;;;35.25;20.85;;;18.40;87.90;;;;;;5034996;28;20025;-68
2023/09/02 05:39:56;;;;;;;35.60;21.83;;;18.50;88.00;;;;;;5027459;28;20017;-68
2023/09/02 05:42:22;;;;;;;36.35;22.63;;;18.40;88.00;;;;;;5028713;28;20146;-68
2023/09/02 05:44:48;;;;;;;41.33;23.58;;;18.40;87.90;;;;;;5027325;28;20496;-67
2023/09/02 05:47:14;;;;;;;39.10;21.98;;;18.50;88.00;;;;;;5029003;28;20446;-67
2023/09/02 05:49:39;;;;;;;40.80;22.83;;;18.50;88.00;;;;;;5028477;28;20823;-67
2023/09/02 05:52:06;;;;;;;35.75;21.50;;;18.50;88.00;;;;;;5029199;28;20030;-68
2023/09/02 05:54:32;;;;;;;37.42;20.83;;;18.50;88.00;;;;;;5027501;28;20474;-68
2023/09/02 05:56:57;;;;;;;31.88;19.58;;;18.40;88.00;;;;;;5027626;28;20357;-68
2023/09/02 05:59:23;;;;;;;35.35;20.90;;;18.50;88.10;;;;;;5028187;28;20117;-68
2023/09/02 06:01:49;;;;;;;35.20;21.05;;;18.50;88.00;;;;;;5028874;28;20037;-67
2023/09/02 06:04:15;;;;;;;33.63;21.38;;;18.50;88.00;;;;;;5026203;28;20045;-68
2023/09/02 06:06:42;;;;;;;37.13;22.00;;;18.50;88.00;;;;;;5026875;28;20104;-69
2023/09/02 06:09:09;;;;;;;31.77;19.67;;;18.50;88.00;;;;;;5025549;28;20043;-69
2023/09/02 06:11:35;;;;;;;32.70;20.67;;;18.50;87.90;;;;;;5022201;28;20034;-69
2023/09/02 06:14:01;;;;;;;31.70;19.98;;;18.50;87.90;;;;;;5029873;28;20052;-68
2023/09/02 06:16:27;;;;;;;35.97;20.75;;;18.60;88.00;;;;;;5025231;28;20040;-69
2023/09/02 06:18:53;;;;;;;34.63;20.50;;;18.60;88.00;;;;;;5022532;28;20082;-69
2023/09/02 06:21:19;;;;;;;33.60;19.02;;;18.50;87.90;;;;;;5027030;28;20017;-68
2023/09/02 06:23:45;;;;;;;33.13;20.95;;;18.60;87.90;;;;;;5025588;28;20119;-69
2023/09/02 06:26:11;;;;;;;33.83;20.42;;;18.60;87.90;;;;;;5023475;28;20061;-69
2023/09/02 06:28:38;;;;;;;31.80;20.17;;;18.60;87.90;;;;;;5025871;28;20049;-69
2023/09/02 06:31:10;;;;;;;33.63;21.05;;;18.60;87.90;;;;;;5027157;28;20025;-69
2023/09/02 06:33:36;;;;;;;33.80;20.08;;;18.60;87.90;;;;;;5025948;28;20029;-68
2023/09/02 06:36:12;;;;;;;29.75;19.00;;;18.60;87.90;;;;;;5026499;28;20033;-69
2023/09/02 06:38:38;;;;;;;27.92;17.20;;;18.60;87.90;;;;;;5039965;28;20465;-69
2023/09/02 06:41:14;;;;;;;28.52;18.98;;;18.60;87.90;;;;;;5029841;28;20021;-68
2023/09/02 06:43:41;;;;;;;31.50;19.55;;;18.60;87.90;;;;;;5022911;28;20124;-68
2023/09/02 06:46:14;;;;;;;28.23;18.90;;;18.70;87.90;;;;;;5029110;28;20417;-69
2023/09/02 06:48:40;;;;;;;31.02;19.42;;;18.60;87.80;;;;;;5011227;28;20030;-68
2023/09/02 06:51:06;;;;;;;31.17;20.70;;;18.60;87.80;;;;;;5027643;28;20054;-69
2023/09/02 06:53:32;;;;;;;30.38;19.75;;;18.70;87.90;;;;;;5024456;28;20032;-68
2023/09/02 06:55:58;;;;;;;31.95;18.58;;;18.60;87.80;;;;;;5024568;28;20109;-69
2023/09/02 06:58:23;;;;;;;32.65;19.25;;;18.70;87.80;;;;;;5021126;28;21405;-70
2023/09/02 07:00:49;;;;;;;28.23;18.67;;;18.70;87.80;;;;;;5024496;28;20032;-70
2023/09/02 07:03:15;;;;;;;31.33;18.63;;;18.70;87.90;;;;;;5021319;28;20443;-70
2023/09/02 07:05:41;;;;;;;29.88;19.30;;;18.70;87.90;;;;;;5024253;28;20102;-70
2023/09/02 07:08:06;;;;;;;28.23;19.05;;;18.70;87.80;;;;;;5023023;28;20139;-70
2023/09/02 07:10:32;;;;;;;29.30;18.10;;;18.70;87.90;;;;;;5023112;28;20087;-70
2023/09/02 07:12:58;;;;;;;28.33;18.25;;;18.70;87.90;;;;;;5023277;28;20070;-71
2023/09/02 07:15:23;;;;;;;26.00;17.52;;;18.70;87.80;;;;;;5025956;28;20030;-71
2023/09/02 07:17:49;;;;;;;27.63;18.33;;;18.70;87.80;;;;;;5025531;28;20029;-71
2023/09/02 07:20:15;;;;;;;27.48;18.23;;;18.70;87.80;;;;;;5024447;28;20034;-71
2023/09/02 07:22:41;;;;;;;26.45;18.85;;;18.70;87.80;;;;;;5027891;28;20029;-71
2023/09/02 07:25:07;;;;;;;26.88;17.23;;;18.70;87.80;;;;;;5028866;28;20351;-68
2023/09/02 07:27:33;;;;;;;25.67;17.45;;;18.70;87.70;;;;;;5029096;28;20482;-68
2023/09/02 07:29:59;;;;;;;21.58;16.13;;;18.80;87.70;;;;;;5026276;28;20030;-68
2023/09/02 07:32:25;;;;;;;23.25;16.13;;;18.80;87.70;;;;;;5024968;28;20029;-68
2023/09/02 07:34:51;;;;;;;22.17;15.93;;;18.80;87.60;;;;;;5025411;28;20032;-69
2023/09/02 07:37:17;;;;;;;21.27;15.70;;;18.80;87.60;;;;;;5028877;28;20026;-69
2023/09/02 07:39:43;;;;;;;22.23;15.63;;;18.90;87.60;;;;;;5027637;28;20037;-68
2023/09/02 07:42:09;;;;;;;22.65;16.17;;;18.80;87.50;;;;;;5032674;28;20055;-68
2023/09/02 07:44:34;;;;;;;20.80;14.55;;;18.90;87.50;;;;;;5030850;28;20091;-68
2023/09/02 07:47:00;;;;;;;21.38;14.93;;;18.90;87.50;;;;;;5014919;28;20358;-68
2023/09/02 07:49:26;;;;;;;24.58;15.82;;;19.00;87.40;;;;;;5027749;28;20040;-68
2023/09/02 07:51:51;;;;;;;22.35;14.93;;;19.00;87.30;;;;;;5029103;28;20048;-69
2023/09/02 07:54:17;;;;;;;22.52;15.13;;;19.00;87.20;;;;;;5029560;28;20116;-68
2023/09/02 07:56:43;;;;;;;21.63;14.70;;;19.10;87.20;;;;;;5028569;28;20037;-68
2023/09/02 07:59:09;;;;;;;21.27;14.50;;;19.10;87.10;;;;;;5031335;28;21679;-69
2023/09/02 08:01:35;;;;;;;22.08;14.50;;;19.20;87.10;;;;;;5031226;28;20031;-68
2023/09/02 08:04:00;;;;;;;20.50;14.73;;;19.20;86.80;;;;;;5027511;28;20415;-69
2023/09/02 08:06:26;;;;;;;19.33;13.55;;;19.20;86.70;;;;;;5030045;28;20037;-69
2023/09/02 08:08:53;;;;;;;20.40;14.50;;;19.20;86.60;;;;;;5032301;28;20021;-69
2023/09/02 08:11:19;;;;;;;21.92;14.63;;;19.20;86.60;;;;;;5030227;28;20041;-69
2023/09/02 08:13:44;;;;;;;23.45;14.85;;;19.20;86.50;;;;;;5031377;28;20120;-69
2023/09/02 08:16:10;;;;;;;19.40;14.18;;;19.20;86.60;;;;;;5029602;28;20029;-69
2023/09/02 08:18:36;;;;;;;21.60;14.77;;;19.20;86.50;;;;;;5026917;28;20017;-69
2023/09/02 08:21:08;;;;;;;23.85;15.35;;;19.20;86.50;;;;;;5024927;28;20022;-69
2023/09/02 08:23:34;;;;;;;23.40;15.57;;;19.20;86.50;;;;;;5032021;28;20112;-70
2023/09/02 08:26:09;;;;;;;23.42;15.43;;;19.20;86.60;;;;;;5029644;28;20121;-70
2023/09/02 08:28:35;;;;;;;23.27;14.85;;;19.20;86.60;;;;;;5032354;28;20442;-69
2023/09/02 08:31:01;;;;;;;21.33;14.77;;;19.20;86.60;;;;;;5013872;28;20032;-69
2023/09/02 08:33:26;;;;;;;21.80;14.60;;;19.20;86.60;;;;;;5029026;28;20419;-69
2023/09/02 08:35:52;;;;;;;24.45;15.93;;;19.20;86.60;;;;;;5029888;28;20095;-69
2023/09/02 08:38:18;;;;;;;24.20;16.38;;;19.30;86.60;;;;;;5011899;28;20048;-70
2023/09/02 08:40:43;;;;;;;22.25;14.98;;;19.30;86.50;;;;;;5025816;28;20116;-70
2023/09/02 08:43:10;;;;;;;20.02;14.80;;;19.40;86.40;;;;;;5028106;28;20241;-69
2023/09/02 08:45:40;;;;;;;21.38;14.52;;;19.50;86.40;;;;;;5026847;28;20030;-69
2023/09/02 08:48:11;;;;;;;19.92;14.05;;;19.60;86.30;;;;;;5028955;28;20048;-70
2023/09/02 08:50:37;;;;;;;20.00;13.73;;;19.60;86.10;;;;;;5012772;28;20053;-69
2023/09/02 08:53:03;;;;;;;21.70;13.73;;;19.70;85.90;;;;;;5028048;28;20028;-69
2023/09/02 08:55:32;;;;;;;20.42;15.02;;;19.80;85.70;;;;;;5031122;28;20026;-70
2023/09/02 08:57:59;;;;;;;20.60;14.35;;;19.90;85.50;;;;;;5029701;28;20037;-69
2023/09/02 09:00:25;;;;;;;19.75;12.95;;;20.00;85.40;;;;;;5029432;28;20041;-70
2023/09/02 09:02:52;;;;;;;20.05;13.38;;;20.10;85.20;;;;;;5030357;28;20052;-69
2023/09/02 09:05:18;;;;;;;19.38;13.68;;;20.20;85.00;;;;;;5030910;28;20451;-69
2023/09/02 09:07:45;;;;;;;20.02;13.27;;;20.20;84.80;;;;;;5030873;28;20367;-69
2023/09/02 09:10:15;;;;;;;18.80;13.07;;;20.30;84.70;;;;;;5029007;28;20100;-69
2023/09/02 09:12:43;;;;;;;21.08;12.20;;;20.30;84.60;;;;;;5025549;28;20017;-69
2023/09/02 09:15:11;;;;;;;19.95;12.50;;;20.30;84.50;;;;;;5027456;28;20025;-69
2023/09/02 09:17:38;;;;;;;19.27;13.05;;;20.40;84.40;;;;;;5029245;28;20025;-69
2023/09/02 09:20:05;;;;;;;20.48;13.10;;;20.50;84.30;;;;;;5028772;28;20018;-69
2023/09/02 09:22:38;;;;;;;21.45;13.40;;;20.60;84.20;;;;;;5032030;28;20053;-69
2023/09/02 09:25:04;;;;;;;19.27;13.35;;;20.60;83.90;;;;;;5025779;28;20095;-69
2023/09/02 09:27:30;;;;;;;18.00;12.43;;;20.60;84.50;;;;;;5026606;28;20529;-69
2023/09/02 09:29:56;;;;;;;18.60;13.00;;;20.50;83.80;;;;;;5026443;28;20025;-69
2023/09/02 09:32:23;;;;;;;18.63;13.20;;;20.50;83.80;;;;;;5028182;28;20300;-70
2023/09/02 09:34:50;;;;;;;18.88;12.82;;;20.50;83.70;;;;;;5030157;28;20040;-68
2023/09/02 09:37:16;;;;;;;19.17;13.27;;;20.50;83.60;;;;;;5028024;28;20112;-69
2023/09/02 09:39:46;;;;;;;19.30;13.13;;;20.50;83.50;;;;;;5030296;28;20112;-69
2023/09/02 09:42:13;;;;;;;18.77;12.57;;;20.50;83.40;;;;;;5035455;28;20573;-69
2023/09/02 09:44:58;;;;;;;19.80;13.52;;;20.50;83.40;;;;;;5035171;28;20064;-69
2023/09/02 09:47:26;;;;;;;19.55;13.65;;;20.50;83.40;;;;;;5033861;28;20030;-69
2023/09/02 09:49:52;;;;;;;18.35;12.95;;;20.40;83.40;;;;;;5020100;28;20075;-69
2023/09/02 09:52:21;;;;;;;18.45;12.77;;;20.40;83.50;;;;;;5029629;28;20029;-69
2023/09/02 09:54:52;;;;;;;18.60;13.27;;;20.40;83.60;;;;;;5034533;28;20470;-69
2023/09/02 09:57:52;;;;;;;17.80;12.13;;;20.40;83.60;;;;;;5035291;28;20101;-69
2023/09/02 10:00:17;;;;;;;17.40;11.90;;;20.50;83.60;;;;;;5031330;28;20049;-69
2023/09/02 10:02:50;;;;;;;17.35;12.88;;;20.50;83.50;;;;;;5025226;28;20033;-69
2023/09/02 10:05:26;;;;;;;16.13;11.95;;;20.60;83.50;;;;;;5033903;28;20112;-69
2023/09/02 10:08:06;;;;;;;17.40;12.95;;;20.60;83.40;;;;;;5035305;28;20068;-69
2023/09/02 10:10:37;;;;;;;16.67;11.98;;;20.60;83.30;;;;;;5033818;28;20017;-69
2023/09/02 10:13:04;;;;;;;16.58;12.18;;;20.70;83.30;;;;;;5018546;28;20044;-69
2023/09/02 10:15:31;;;;;;;16.60;12.65;;;20.70;83.20;;;;;;5032468;28;20025;-69
2023/09/02 10:17:58;;;;;;;16.77;12.50;;;20.80;83.70;;;;;;5034043;28;20343;-69
2023/09/02 10:20:27;;;;;;;16.05;11.80;;;20.80;83.10;;;;;;5033033;28;20079;-69
2023/09/02 10:22:54;;;;;;;18.02;12.48;;;20.90;82.90;;;;;;5022280;28;20057;-69
2023/09/02 10:25:53;;;;;;;15.77;12.13;;;21.00;82.70;;;;;;5034599;28;20094;-69
2023/09/02 10:28:24;;;;;;;16.80;11.85;;;20.90;82.60;;;;;;5034925;28;20030;-69
2023/09/02 10:30:55;;;;;;;15.55;12.13;;;21.00;82.60;;;;;;5033002;28;20025;-69
2023/09/02 10:33:38;;;;;;;17.23;12.13;;;21.00;82.50;;;;;;5024526;28;20455;-70
2023/09/02 10:36:07;;;;;;;17.90;12.48;;;21.00;82.50;;;;;;5033566;28;20338;-69
2023/09/02 10:38:36;;;;;;;15.60;11.40;;;21.00;82.40;;;;;;5033952;28;20034;-69
2023/09/02 10:41:10;;;;;;;15.63;12.18;;;21.10;82.40;;;;;;5032857;28;20139;-69
2023/09/02 10:43:37;;;;;;;16.63;12.55;;;21.10;82.40;;;;;;5024280;28;20112;-69
2023/09/02 10:46:04;;;;;;;16.00;12.35;;;21.10;82.50;;;;;;5034530;28;20099;-69
2023/09/02 10:48:30;;;;;;;17.15;13.30;;;21.10;82.50;;;;;;5029479;28;20451;-69
2023/09/02 10:50:56;;;;;;;16.20;12.57;;;21.10;82.50;;;;;;5025474;28;20041;-69
2023/09/02 10:54:01;;;;;;;14.93;11.18;;;21.30;82.30;;;;;;5021892;28;20140;-69
2023/09/02 10:56:32;;;;;;;15.10;10.77;;;21.40;81.90;;;;;;5029244;28;20112;-69
2023/09/02 10:58:59;;;;;;;17.30;12.50;;;21.50;81.50;;;;;;5036860;28;20048;-69
2023/09/02 11:01:25;;;;;;;16.77;12.98;;;21.50;81.30;;;;;;5037924;28;20041;-69
2023/09/02 11:03:55;;;;;;;16.55;12.95;;;21.40;81.20;;;;;;5035595;28;20033;-69
2023/09/02 11:06:20;;;;;;;16.10;12.20;;;21.40;81.20;;;;;;5035106;28;20123;-69
2023/09/02 11:08:46;;;;;;;16.20;12.90;;;21.30;81.30;;;;;;5036178;28;20084;-69
2023/09/02 11:11:12;;;;;;;17.50;12.18;;;21.40;81.40;;;;;;5038455;28;20021;-69
2023/09/02 11:14:06;;;;;;;15.77;12.10;;;21.40;81.20;;;;;;5020690;28;20048;-69
2023/09/02 11:16:38;;;;;;;15.68;11.50;;;21.40;80.90;;;;;;5037317;28;20506;-70
2023/09/02 11:19:08;;;;;;;15.35;12.30;;;21.40;81.60;;;;;;5038159;28;20029;-69
2023/09/02 11:21:46;;;;;;;15.02;11.57;;;21.40;81.00;;;;;;5021068;28;20045;-69
2023/09/02 11:24:16;;;;;;;14.80;11.10;;;21.40;80.90;;;;;;5037247;28;20457;-69
2023/09/02 11:26:57;;;;;;;14.40;11.10;;;21.40;80.80;;;;;;5034582;28;20037;-70
2023/09/02 11:29:28;;;;;;;13.15;9.95;;;21.60;80.70;;;;;;5037874;28;20029;-69
2023/09/02 11:32:05;;;;;;;13.63;10.02;;;21.90;80.30;;;;;;5020597;28;20116;-69
2023/09/02 11:34:31;;;;;;;13.18;10.43;;;22.00;79.60;;;;;;5036853;28;20037;-69
2023/09/02 11:36:58;;;;;;;14.38;10.10;;;22.00;79.30;;;;;;5035915;28;20017;-69
2023/09/02 11:39:25;;;;;;;14.90;10.55;;;21.90;79.30;;;;;;5038030;28;20377;-70
2023/09/02 11:42:08;;;;;;;13.57;9.32;;;21.80;79.40;;;;;;5037835;28;20041;-69
2023/09/02 11:44:34;;;;;;;13.05;8.60;;;21.70;79.50;;;;;;5038045;28;20021;-69
2023/09/02 11:47:05;;;;;;;13.82;9.07;;;21.70;79.60;;;;;;5068939;28;20060;-69
2023/09/02 11:49:30;;;;;;;12.82;9.98;;;21.70;79.60;;;;;;5023942;28;20034;-69
2023/09/02 11:51:57;;;;;;;12.45;8.65;;;21.70;79.50;;;;;;5037101;28;20030;-69
2023/09/02 11:54:23;;;;;;;13.18;9.05;;;21.70;79.30;;;;;;5042883;28;20043;-68
2023/09/02 11:57:00;;;;;;;13.20;9.50;;;21.60;79.20;;;;;;5035990;28;20442;-69
2023/09/02 11:59:26;;;;;;;11.50;8.07;;;21.60;79.00;;;;;;5037032;28;20064;-69
2023/09/02 12:02:08;;;;;;;10.85;8.38;;;21.60;79.00;;;;;;5036327;28;20437;-69
2023/09/02 12:04:41;;;;;;;10.95;7.45;;;21.70;78.80;;;;;;5041985;28;20060;-69
2023/09/02 12:07:09;;;;;;;12.38;8.32;;;21.80;78.90;;;;;;5045795;28;20083;-69
2023/09/02 12:09:36;;;;;;;10.15;7.43;;;22.00;78.50;;;;;;5037021;28;20025;-68
2023/09/02 12:12:02;;;;;;;10.95;8.18;;;22.10;78.00;;;;;;5037418;28;20068;-67
2023/09/02 12:14:28;;;;;;;10.75;7.63;;;22.10;77.70;;;;;;5044352;28;20030;-68
2023/09/02 12:17:04;;;;;;;10.38;8.00;;;22.10;77.60;;;;;;5048026;28;20453;-68
2023/09/02 12:19:29;;;;;;;10.02;7.20;;;22.10;77.60;;;;;;5060765;28;20037;-68
2023/09/02 12:21:55;;;;;;;10.68;7.70;;;22.10;77.60;;;;;;5036272;28;20036;-68
2023/09/02 12:24:22;;;;;;;12.07;8.35;;;22.10;77.50;;;;;;5043676;28;20462;-69
2023/09/02 12:26:49;;;;;;;12.55;8.32;;;22.30;77.40;;;;;;5047356;28;20438;-69
2023/09/02 12:29:16;;;;;;;12.63;9.10;;;22.40;77.30;;;;;;5038365;28;20021;-69
2023/09/02 12:31:44;;;;;;;14.60;9.95;;;22.50;77.20;;;;;;5036163;28;20441;-69